Time;durP1;ratioP1;P1;durP2;ratioP2;P2;SDS_P1;SDS_P2;PMS_P1;PMS_P2;Temp;Humidity;BMP_temperature;BMP_pressure;BME280_temperature;BME280_humidity;BME280_pressure;Samples;Min_cycle;Max_cycle;Signal;HPM_P1;HPM_P2
2022/01/09 00:00:10;;;;;;;12.52;6.13;;;;;;;4.77;76.14;94390.22;5030013;28;20093;-81
2022/01/09 00:02:36;;;;;;;12.07;6.63;;;;;;;4.73;76.23;94377.88;5015641;28;20442;-82
2022/01/09 00:05:02;;;;;;;12.50;6.93;;;;;;;4.89;76.74;94403.91;5030024;28;20049;-81
2022/01/09 00:07:27;;;;;;;12.32;6.78;;;;;;;4.30;76.45;94316.72;5015743;28;20060;-81
2022/01/09 00:09:53;;;;;;;13.93;6.88;;;;;;;4.63;76.63;94389.91;5030348;28;20489;-81
2022/01/09 00:12:18;;;;;;;12.35;6.53;;;;;;;4.67;76.57;94392.78;5015501;28;20038;-81
2022/01/09 00:14:44;;;;;;;17.00;6.93;;;;;;;4.58;76.80;94379.34;4998040;28;20124;-82
2022/01/09 00:17:09;;;;;;;11.35;6.15;;;;;;;4.76;76.63;94387.84;5029362;28;20048;-81
2022/01/09 00:19:35;;;;;;;16.27;6.90;;;;;;;4.53;76.42;94353.06;4997800;28;20121;-81
2022/01/09 00:22:00;;;;;;;12.13;6.00;;;;;;;4.91;76.03;94407.09;5015650;28;20352;-81
2022/01/09 00:24:26;;;;;;;14.80;6.60;;;;;;;4.54;76.31;94359.13;5015460;28;20034;-82
2022/01/09 00:26:51;;;;;;;12.45;6.82;;;;;;;4.84;76.12;94403.13;5015241;28;20042;-81
2022/01/09 00:29:16;;;;;;;14.05;6.90;;;;;;;4.27;76.50;94325.13;5015981;28;20069;-81
2022/01/09 00:31:42;;;;;;;14.25;7.25;;;;;;;4.12;77.29;94323.19;5031426;28;20042;-81
2022/01/09 00:34:07;;;;;;;13.52;6.45;;;;;;;4.75;76.65;94386.25;5031872;28;20068;-82
2022/01/09 00:36:33;;;;;;;13.23;6.45;;;;;;;4.88;76.20;94402.34;5031120;28;20034;-81
2022/01/09 00:38:59;;;;;;;14.07;6.70;;;;;;;4.91;76.38;94401.84;5020426;28;20033;-81
2022/01/09 00:41:24;;;;;;;15.73;6.50;;;;;;;4.81;75.85;94369.47;5009894;28;20038;-81
2022/01/09 00:43:50;;;;;;;15.55;6.40;;;;;;;4.53;76.26;94326.81;5015873;28;20104;-81
2022/01/09 00:46:17;;;;;;;13.23;6.63;;;;;;;4.24;76.63;94313.28;5016134;28;20046;-81
2022/01/09 00:48:43;;;;;;;12.63;6.68;;;;;;;4.60;77.42;94381.72;5018106;28;20101;-81
2022/01/09 00:51:09;;;;;;;13.65;6.45;;;;;;;4.77;77.34;94382.34;5016822;28;20441;-81
2022/01/09 00:53:34;;;;;;;11.35;5.97;;;;;;;3.85;77.12;94241.19;5029402;28;20527;-82
2022/01/09 00:56:06;;;;;;;11.02;6.10;;;;;;;4.57;77.46;94366.50;4802939;28;10000810;-82
2022/01/09 00:58:32;;;;;;;11.30;6.07;;;;;;;4.66;77.47;94370.97;687181;28;10002022;-81
2022/01/09 01:01:12;;;;;;;12.95;5.95;;;;;;;4.63;77.17;94344.44;2114454;28;10022763;-81
2022/01/09 01:03:38;;;;;;;12.35;6.35;;;;;;;4.80;76.80;94394.97;3615499;28;10001164;-82
2022/01/09 01:06:04;;;;;;;12.13;6.50;;;;;;;4.58;76.79;94363.59;5025970;28;20034;-81
2022/01/09 01:08:30;;;;;;;12.00;6.95;;;;;;;4.79;76.92;94395.22;4994554;28;20034;-81
2022/01/09 01:10:55;;;;;;;12.80;6.75;;;;;;;4.75;77.07;94388.88;4993972;28;20437;-81
2022/01/09 01:13:21;;;;;;;10.02;5.95;;;;;;;4.69;76.85;94359.19;4994983;28;20053;-82
2022/01/09 01:15:46;;;;;;;10.82;5.93;;;;;;;4.39;76.10;94306.53;4994038;28;20568;-82
2022/01/09 01:18:12;;;;;;;12.77;6.10;;;;;;;4.15;76.62;94283.31;4993251;28;20064;-82
2022/01/09 01:20:37;;;;;;;11.90;6.35;;;;;;;4.43;76.74;94334.63;4993287;28;20048;-82
2022/01/09 01:23:03;;;;;;;15.95;6.20;;;;;;;4.58;76.94;94347.03;4993422;28;20038;-82
2022/01/09 01:25:29;;;;;;;12.40;5.75;;;;;;;4.57;76.59;94334.97;4994223;28;20113;-81
2022/01/09 01:27:54;;;;;;;12.48;5.30;;;;;;;4.26;76.62;94319.09;4994030;28;20034;-81
2022/01/09 01:30:20;;;;;;;13.50;7.47;;;;;;;4.25;77.10;94327.22;4998216;28;20169;-82
2022/01/09 01:32:46;;;;;;;13.27;7.03;;;;;;;4.10;77.14;94287.75;4996480;28;20633;-81
2022/01/09 01:35:12;;;;;;;10.90;6.38;;;;;;;4.45;76.82;94335.16;4997269;28;20031;-81
2022/01/09 01:37:41;;;;;;;11.10;5.78;;;;;;;4.03;76.73;94279.31;4996189;28;20132;-82
2022/01/09 01:40:10;;;;;;;15.18;6.93;;;;;;;3.99;76.55;94265.13;4995937;28;20038;-82
2022/01/09 01:42:35;;;;;;;13.75;7.60;;;;;;;4.03;76.28;94268.84;4996164;28;20401;-82
2022/01/09 01:45:01;;;;;;;12.60;6.70;;;;;;;4.59;76.91;94359.91;5029133;28;20046;-81
2022/01/09 01:47:27;;;;;;;13.82;7.03;;;;;;;4.08;76.54;94258.34;4997375;28;20038;-81
2022/01/09 01:49:52;;;;;;;19.77;7.78;;;;;;;4.41;76.62;94304.44;4997759;28;20397;-81
2022/01/09 01:52:28;;;;;;;13.82;6.95;;;;;;;4.08;76.41;94251.28;4997724;28;20502;-81
2022/01/09 01:54:54;;;;;;;15.85;7.63;;;;;;;4.50;76.51;94318.66;4995971;28;20066;-81
2022/01/09 01:57:20;;;;;;;11.85;7.18;;;;;;;4.65;76.40;94322.13;4995909;28;20473;-82
2022/01/09 01:59:45;;;;;;;16.63;7.35;;;;;;;4.20;76.33;94258.94;4997681;28;20039;-81
2022/01/09 02:02:11;;;;;;;13.32;7.40;;;;;;;4.62;76.37;94314.78;4996463;28;20041;-82
2022/01/09 02:04:37;;;;;;;22.33;8.55;;;;;;;4.66;76.27;94318.44;5028394;28;20026;-82
2022/01/09 02:07:03;;;;;;;17.00;8.13;;;;;;;4.32;76.58;94293.66;4997465;28;20031;-81
2022/01/09 02:09:29;;;;;;;15.93;9.13;;;;;;;3.76;76.02;94193.66;4997605;28;20121;-81
2022/01/09 02:11:55;;;;;;;18.73;8.35;;;;;;;4.11;76.22;94247.38;4997784;28;20040;-81
2022/01/09 02:14:21;;;;;;;16.67;8.93;;;;;;;4.45;76.51;94303.66;4998064;28;20425;-81
2022/01/09 02:16:48;;;;;;;15.50;8.25;;;;;;;4.04;76.55;94220.56;5028869;28;20121;-81
2022/01/09 02:19:15;;;;;;;17.15;9.75;;;;;;;4.26;76.45;94260.56;5028326;28;20061;-83
2022/01/09 02:21:43;;;;;;;18.50;7.90;;;;;;;4.30;76.30;94252.94;5027718;28;20520;-82
2022/01/09 02:24:08;;;;;;;15.23;8.60;;;;;;;4.13;75.74;94227.66;4995446;28;20057;-82
2022/01/09 02:26:34;;;;;;;15.43;9.05;;;;;;;4.42;76.17;94279.78;4995329;28;20489;-82
2022/01/09 02:28:59;;;;;;;17.83;9.13;;;;;;;4.32;75.80;94296.25;4995570;28;20382;-82
2022/01/09 02:31:25;;;;;;;18.45;10.20;;;;;;;4.12;76.97;94278.56;4995615;28;20101;-81
2022/01/09 02:33:50;;;;;;;21.17;9.70;;;;;;;4.01;76.44;94245.47;4997218;28;20030;-80
2022/01/09 02:36:17;;;;;;;19.90;8.93;;;;;;;4.33;76.08;94278.69;4997818;28;20034;-80
2022/01/09 02:38:43;;;;;;;23.02;9.75;;;;;;;4.03;75.87;94242.59;4998297;28;20052;-80
2022/01/09 02:41:08;;;;;;;17.23;9.95;;;;;;;3.90;75.62;94217.59;4997315;28;20034;-80
2022/01/09 02:43:34;;;;;;;19.15;9.93;;;;;;;4.22;75.66;94248.97;5006713;28;20084;-80
2022/01/09 02:46:24;;;;;;;20.33;10.90;;;;;;;3.74;76.96;94231.66;5001123;28;20121;-81
2022/01/09 02:48:51;;;;;;;20.08;9.68;;;;;;;3.49;77.01;94151.06;5001497;28;20101;-80
2022/01/09 02:51:17;;;;;;;20.13;10.55;;;;;;;3.90;76.70;94222.84;5001596;28;20080;-80
2022/01/09 02:53:49;;;;;;;22.23;10.65;;;;;;;3.56;76.47;94177.84;5032433;28;20048;-80
2022/01/09 02:56:33;;;;;;;19.17;10.75;;;;;;;3.91;75.92;94198.19;2949457;28;10003333;-81
2022/01/09 02:58:58;;;;;;;18.67;9.65;;;;;;;4.19;76.11;94237.16;2929287;28;10001085;-80
2022/01/09 03:01:24;;;;;;;18.95;9.68;;;;;;;3.86;76.33;94208.66;4981772;28;20473;-80
2022/01/09 03:03:49;;;;;;;19.00;10.23;;;;;;;3.80;76.15;94194.75;4982324;28;20046;-79
2022/01/09 03:06:14;;;;;;;20.08;11.23;;;;;;;3.92;76.25;94201.59;5015524;28;20072;-79
2022/01/09 03:08:40;;;;;;;21.23;11.13;;;;;;;4.03;75.88;94208.50;4982306;28;20038;-79
2022/01/09 03:11:06;;;;;;;22.25;10.70;;;;;;;4.03;75.82;94217.16;4999353;28;20038;-80
2022/01/09 03:13:32;;;;;;;19.98;10.45;;;;;;;3.99;75.69;94218.69;4981002;28;20038;-81
2022/01/09 03:15:58;;;;;;;24.13;11.52;;;;;;;3.85;75.85;94179.03;4998350;28;20042;-80
2022/01/09 03:18:23;;;;;;;26.42;10.93;;;;;;;3.74;75.87;94172.13;4979826;28;20390;-80
2022/01/09 03:20:49;;;;;;;22.48;11.25;;;;;;;3.92;76.00;94197.16;4997961;28;20045;-81
2022/01/09 03:23:14;;;;;;;22.67;11.32;;;;;;;3.84;76.51;94208.91;4980234;28;20061;-80
2022/01/09 03:25:40;;;;;;;25.35;10.27;;;;;;;3.97;75.92;94231.28;4979696;28;20030;-80
2022/01/09 03:28:05;;;;;;;19.75;10.05;;;;;;;3.51;75.96;94142.94;4997546;28;20116;-80
2022/01/09 03:30:31;;;;;;;19.13;10.77;;;;;;;3.68;76.35;94216.94;4980661;28;20461;-79
2022/01/09 03:32:56;;;;;;;22.40;10.60;;;;;;;3.14;76.17;94108.91;5013421;28;20195;-80
2022/01/09 03:35:24;;;;;;;24.85;11.32;;;;;;;4.00;75.76;94220.28;4998579;28;20070;-80
2022/01/09 03:37:50;;;;;;;20.77;11.60;;;;;;;3.48;75.89;94134.53;5013462;28;20038;-80
2022/01/09 03:40:20;;;;;;;24.38;10.98;;;;;;;3.69;75.73;94168.72;4982074;28;20038;-81
2022/01/09 03:42:53;;;;;;;22.00;10.43;;;;;;;3.97;76.12;94226.03;5014039;28;20030;-80
2022/01/09 03:45:21;;;;;;;22.63;11.35;;;;;;;3.19;76.87;94128.09;4979611;28;20125;-80
2022/01/09 03:47:47;;;;;;;19.70;10.05;;;;;;;3.26;76.09;94109.53;4979731;28;20097;-81
2022/01/09 03:50:13;;;;;;;23.98;10.80;;;;;;;3.20;76.13;94144.59;4979526;28;20034;-81
2022/01/09 03:52:40;;;;;;;22.60;11.30;;;;;;;3.55;77.05;94212.16;4996311;28;20042;-80
2022/01/09 03:55:08;;;;;;;18.23;9.98;;;;;;;3.49;77.12;94185.13;4978688;28;20096;-81
2022/01/09 03:57:33;;;;;;;21.00;11.05;;;;;;;3.63;76.83;94178.41;4996354;28;20045;-80
2022/01/09 03:59:59;;;;;;;21.45;10.90;;;;;;;3.94;76.57;94208.19;4979322;28;20038;-81
2022/01/09 04:02:24;;;;;;;18.63;9.95;;;;;;;3.36;76.47;94127.91;4978756;28;20046;-80
2022/01/09 04:04:50;;;;;;;19.33;10.27;;;;;;;3.37;76.67;94140.75;4980097;28;20034;-81
2022/01/09 04:07:16;;;;;;;18.80;11.00;;;;;;;3.21;77.06;94123.38;5011078;28;20523;-81
2022/01/09 04:09:45;;;;;;;22.42;10.43;;;;;;;3.63;76.96;94164.50;4978037;28;20038;-80
2022/01/09 04:12:18;;;;;;;21.05;10.48;;;;;;;3.40;76.63;94136.84;4995273;28;20452;-81
2022/01/09 04:14:48;;;;;;;18.83;10.00;;;;;;;3.80;75.80;94188.72;4979233;28;20034;-81
2022/01/09 04:17:27;;;;;;;25.58;11.10;;;;;;;3.62;76.58;94157.66;4997318;28;20481;-80
2022/01/09 04:19:53;;;;;;;23.48;11.57;;;;;;;3.39;76.79;94130.81;4997644;28;20030;-81
2022/01/09 04:22:18;;;;;;;17.70;9.65;;;;;;;3.94;76.41;94189.03;5012569;28;20045;-81
2022/01/09 04:24:44;;;;;;;17.05;9.85;;;;;;;3.78;77.21;94194.22;4995233;28;20062;-80
2022/01/09 04:27:09;;;;;;;19.20;10.23;;;;;;;4.03;77.18;94211.13;5011842;28;20026;-81
2022/01/09 04:29:35;;;;;;;20.20;10.18;;;;;;;3.75;76.55;94165.84;4996674;28;20037;-80
2022/01/09 04:32:00;;;;;;;20.25;10.00;;;;;;;3.78;77.05;94167.97;4996859;28;20124;-80
2022/01/09 04:34:26;;;;;;;21.98;10.48;;;;;;;3.60;77.37;94151.88;5011900;28;20589;-81
2022/01/09 04:36:51;;;;;;;18.02;9.57;;;;;;;3.85;78.21;94178.22;4996819;28;20105;-80
2022/01/09 04:39:17;;;;;;;20.27;10.73;;;;;;;3.74;78.00;94158.25;4979075;28;20065;-80
2022/01/09 04:41:42;;;;;;;20.98;11.23;;;;;;;3.60;77.48;94139.56;4979304;28;20073;-80
2022/01/09 04:44:08;;;;;;;20.52;10.43;;;;;;;3.66;77.87;94146.41;4996491;28;20054;-80
2022/01/09 04:46:46;;;;;;;23.13;10.07;;;;;;;3.91;77.89;94160.69;4979522;28;20134;-80
2022/01/09 04:49:12;;;;;;;20.67;10.60;;;;;;;3.74;77.52;94135.44;4978945;28;20050;-80
2022/01/09 04:51:38;;;;;;;22.58;11.50;;;;;;;4.25;77.54;94204.66;4978874;28;20112;-81
2022/01/09 04:54:04;;;;;;;25.30;11.80;;;;;;;3.92;77.79;94167.50;4995042;28;20042;-80
2022/01/09 04:56:49;;;;;;;19.27;10.28;;;;;;;3.50;78.21;94118.56;2289580;28;10022857;-80
2022/01/09 04:59:14;;;;;;;23.23;11.55;;;;;;;3.68;78.55;94117.31;3604390;28;10001223;-80
2022/01/09 05:01:40;;;;;;;21.45;10.60;;;;;;;3.81;78.60;94174.56;4977356;28;20034;-79
2022/01/09 05:04:05;;;;;;;19.48;10.15;;;;;;;3.94;78.91;94184.56;4998771;28;20362;-79
2022/01/09 05:06:31;;;;;;;17.92;9.85;;;;;;;3.73;78.26;94122.59;4998730;28;20517;-80
2022/01/09 05:08:56;;;;;;;18.02;9.90;;;;;;;3.77;77.74;94126.28;5013134;28;20097;-79
2022/01/09 05:11:22;;;;;;;23.70;11.23;;;;;;;4.31;77.43;94202.03;5014249;28;20510;-80
2022/01/09 05:13:47;;;;;;;20.50;10.57;;;;;;;4.02;77.45;94168.34;4980995;28;20054;-80
2022/01/09 05:16:13;;;;;;;28.45;12.10;;;;;;;3.65;77.22;94105.53;4980971;28;20509;-80
2022/01/09 05:18:51;;;;;;;25.60;12.75;;;;;;;3.91;77.03;94124.75;4998955;28;20090;-80
2022/01/09 05:21:17;;;;;;;25.25;11.13;;;;;;;4.34;76.96;94183.16;5013855;28;20437;-80
2022/01/09 05:23:43;;;;;;;21.65;11.13;;;;;;;4.53;77.04;94206.03;4983313;28;20149;-79
2022/01/09 05:26:09;;;;;;;19.67;10.93;;;;;;;4.12;76.95;94126.38;5018018;28;20022;-79
2022/01/09 05:28:34;;;;;;;25.92;11.90;;;;;;;4.07;77.24;94154.44;4980540;28;20041;-80
2022/01/09 05:31:00;;;;;;;21.42;11.02;;;;;;;4.26;77.52;94166.06;4980709;28;20449;-79
2022/01/09 05:33:25;;;;;;;19.70;11.07;;;;;;;4.12;77.20;94144.00;4980462;28;20054;-79
2022/01/09 05:35:50;;;;;;;31.17;13.82;;;;;;;3.70;77.19;94081.16;5013099;28;20549;-80
2022/01/09 05:38:18;;;;;;;28.92;12.65;;;;;;;4.17;77.45;94151.88;4998187;28;20049;-80
2022/01/09 05:40:44;;;;;;;23.88;11.73;;;;;;;4.00;77.49;94138.16;5014410;28;20113;-80
2022/01/09 05:43:11;;;;;;;25.35;11.60;;;;;;;3.61;77.02;94064.31;4981315;28;20095;-80
2022/01/09 05:45:36;;;;;;;21.60;11.50;;;;;;;4.48;76.59;94179.78;4998622;28;20089;-80
2022/01/09 05:48:02;;;;;;;22.63;10.75;;;;;;;4.04;76.78;94123.50;4998496;28;20035;-80
2022/01/09 05:50:28;;;;;;;22.67;12.05;;;;;;;3.83;77.39;94126.03;4998601;28;20046;-81
2022/01/09 05:52:53;;;;;;;22.50;11.45;;;;;;;4.17;77.46;94178.09;4996185;28;20045;-80
2022/01/09 05:55:19;;;;;;;23.83;12.07;;;;;;;3.61;77.05;94086.09;4980027;28;20049;-80
2022/01/09 05:57:44;;;;;;;24.65;12.73;;;;;;;4.19;77.70;94197.81;4998713;28;20038;-80
2022/01/09 06:00:10;;;;;;;25.13;12.18;;;;;;;3.74;78.17;94153.00;4981647;28;20038;-80
2022/01/09 06:02:36;;;;;;;22.15;12.15;;;;;;;4.10;78.10;94201.97;4982290;28;20246;-80
2022/01/09 06:05:01;;;;;;;23.35;12.88;;;;;;;3.87;77.70;94152.53;4999916;28;20030;-80
2022/01/09 06:07:27;;;;;;;24.08;12.52;;;;;;;3.76;77.67;94109.75;4982012;28;20429;-80
2022/01/09 06:09:52;;;;;;;21.35;11.73;;;;;;;4.35;77.04;94188.13;5000308;28;20043;-81
2022/01/09 06:12:18;;;;;;;24.08;11.98;;;;;;;4.35;77.04;94174.22;5000286;28;20042;-80
2022/01/09 06:14:43;;;;;;;20.27;11.52;;;;;;;4.35;76.94;94161.88;4981425;28;20115;-80
2022/01/09 06:17:09;;;;;;;19.92;11.05;;;;;;;4.19;76.56;94131.41;4981946;28;20041;-81
2022/01/09 06:19:34;;;;;;;24.55;11.23;;;;;;;4.28;76.70;94142.94;5000229;28;20257;-81
2022/01/09 06:22:00;;;;;;;23.80;11.07;;;;;;;4.01;76.40;94106.44;5008393;28;20042;-80
2022/01/09 06:24:25;;;;;;;25.92;12.23;;;;;;;4.56;76.60;94184.50;4980780;28;20132;-80
2022/01/09 06:26:51;;;;;;;19.95;11.10;;;;;;;4.05;76.95;94119.78;4984123;28;20038;-80
2022/01/09 06:29:16;;;;;;;20.40;10.43;;;;;;;4.17;76.93;94146.63;4980269;28;20065;-80
2022/01/09 06:31:42;;;;;;;23.02;11.10;;;;;;;4.48;76.97;94166.66;4980623;28;20030;-80
2022/01/09 06:34:08;;;;;;;22.75;11.40;;;;;;;4.57;76.78;94172.97;4980142;28;20038;-80
2022/01/09 06:36:33;;;;;;;20.58;11.18;;;;;;;3.97;76.70;94089.59;4980527;28;20038;-80
2022/01/09 06:38:59;;;;;;;22.55;12.02;;;;;;;4.11;76.50;94082.84;4997667;28;20049;-80
2022/01/09 06:41:24;;;;;;;20.13;11.10;;;;;;;4.35;76.31;94113.84;5013614;28;20277;-80
2022/01/09 06:43:50;;;;;;;21.50;11.25;;;;;;;4.57;75.66;94133.56;4979654;28;20099;-80
2022/01/09 06:46:15;;;;;;;20.13;10.70;;;;;;;4.58;75.69;94126.47;4998293;28;20064;-80
2022/01/09 06:48:41;;;;;;;22.95;11.70;;;;;;;4.75;75.45;94147.22;4980468;28;20034;-80
2022/01/09 06:51:07;;;;;;;20.25;12.45;;;;;;;4.41;75.76;94118.84;4997496;28;20038;-80
2022/01/09 06:53:32;;;;;;;20.77;13.00;;;;;;;4.43;75.41;94108.84;4980385;28;20031;-80
2022/01/09 06:56:17;;;;;;;25.37;12.19;;;;;;;4.86;75.47;94144.34;4547682;28;10001190;-80
2022/01/09 06:58:43;;;;;;;25.63;12.57;;;;;;;5.07;74.77;94174.03;1374904;28;10001969;-80
2022/01/09 07:01:08;;;;;;;28.92;13.02;;;;;;;4.95;74.73;94152.50;4997657;28;20041;-80
2022/01/09 07:03:34;;;;;;;29.05;15.05;;;;;;;4.97;74.63;94164.31;4980566;28;20069;-80
2022/01/09 07:05:59;;;;;;;24.83;13.88;;;;;;;4.40;74.29;94071.84;4979923;28;20026;-80
2022/01/09 07:08:27;;;;;;;23.13;13.07;;;;;;;4.39;74.57;94096.53;4979424;28;20132;-80
2022/01/09 07:10:52;;;;;;;23.02;13.50;;;;;;;5.04;74.39;94159.59;4997618;28;20109;-80
2022/01/09 07:13:18;;;;;;;23.25;12.45;;;;;;;5.02;74.00;94156.44;4979816;28;20061;-81
2022/01/09 07:15:44;;;;;;;24.98;12.35;;;;;;;4.78;74.47;94149.34;5012496;28;20492;-80
2022/01/09 07:18:10;;;;;;;22.45;13.32;;;;;;;4.60;74.22;94117.28;4980382;28;20038;-80
2022/01/09 07:20:35;;;;;;;23.85;12.85;;;;;;;5.02;73.68;94164.34;4998023;28;20084;-81
2022/01/09 07:23:01;;;;;;;27.08;13.43;;;;;;;4.80;73.74;94142.78;4997126;28;20082;-80
2022/01/09 07:25:26;;;;;;;25.25;12.88;;;;;;;4.87;73.75;94143.31;4979224;28;20224;-80
2022/01/09 07:27:51;;;;;;;24.13;13.65;;;;;;;4.69;74.63;94122.03;4980034;28;20033;-80
2022/01/09 07:30:17;;;;;;;23.95;13.23;;;;;;;4.80;74.30;94129.66;5012056;28;20042;-80
2022/01/09 07:32:43;;;;;;;26.33;13.68;;;;;;;5.05;73.64;94168.25;4996901;28;20053;-80
2022/01/09 07:35:08;;;;;;;23.95;13.88;;;;;;;4.84;73.94;94137.78;4996989;28;20089;-80
2022/01/09 07:37:34;;;;;;;28.83;13.02;;;;;;;4.81;73.41;94122.53;4997242;28;20039;-80
2022/01/09 07:39:59;;;;;;;23.38;12.98;;;;;;;5.13;73.97;94172.97;4979125;28;20552;-80
2022/01/09 07:42:26;;;;;;;22.30;12.32;;;;;;;4.80;74.31;94123.63;4979806;28;20041;-80
2022/01/09 07:44:51;;;;;;;23.60;13.15;;;;;;;5.35;74.31;94184.00;4996939;28;20053;-80
2022/01/09 07:47:17;;;;;;;22.15;12.65;;;;;;;5.11;74.33;94156.69;4979557;28;20027;-80
2022/01/09 07:49:42;;;;;;;27.17;13.75;;;;;;;4.65;74.02;94066.63;4979765;28;20030;-80
2022/01/09 07:52:08;;;;;;;24.92;12.23;;;;;;;4.92;73.95;94097.84;4997160;28;20036;-80
2022/01/09 07:54:33;;;;;;;22.58;13.07;;;;;;;4.90;73.25;94082.34;4997415;28;20057;-80
2022/01/09 07:56:59;;;;;;;25.80;13.43;;;;;;;4.87;74.00;94076.84;5004871;28;20134;-80
2022/01/09 07:59:24;;;;;;;29.70;12.68;;;;;;;4.79;74.19;94080.78;5016315;28;20095;-80
2022/01/09 08:01:50;;;;;;;23.08;12.60;;;;;;;5.55;74.07;94175.31;5011571;28;20403;-80
2022/01/09 08:04:16;;;;;;;20.75;11.55;;;;;;;4.79;74.00;94043.22;5011145;28;20042;-80
2022/01/09 08:06:41;;;;;;;21.80;11.35;;;;;;;5.30;73.88;94120.94;4978713;28;20037;-80
2022/01/09 08:09:07;;;;;;;20.75;10.38;;;;;;;4.96;74.50;94098.88;4996754;28;20026;-80
2022/01/09 08:11:32;;;;;;;18.55;10.43;;;;;;;4.97;73.99;94064.47;4979038;28;20037;-81
2022/01/09 08:13:58;;;;;;;20.45;9.98;;;;;;;4.68;73.98;94005.69;4978935;28;20060;-80
2022/01/09 08:16:23;;;;;;;21.35;10.80;;;;;;;5.58;73.86;94116.91;4996336;28;20149;-80
2022/01/09 08:18:49;;;;;;;24.17;9.52;;;;;;;5.67;73.50;94152.13;4996327;28;20046;-81
2022/01/09 08:21:19;;;;;;;19.13;9.88;;;;;;;5.30;73.92;94065.72;4995818;28;20038;-80
2022/01/09 08:23:48;;;;;;;21.20;10.27;;;;;;;5.55;74.34;94100.91;4978443;28;20035;-81
2022/01/09 08:26:15;;;;;;;20.65;10.82;;;;;;;5.88;72.87;94133.66;4996795;28;20026;-80
2022/01/09 08:28:44;;;;;;;22.42;11.00;;;;;;;5.85;73.46;94132.34;4995779;28;20038;-80
2022/01/09 08:31:11;;;;;;;17.08;9.10;;;;;;;5.83;73.47;94113.41;5011520;28;20101;-80
2022/01/09 08:33:36;;;;;;;18.38;9.50;;;;;;;5.75;73.35;94119.22;4978146;28;20037;-80
2022/01/09 08:36:02;;;;;;;17.70;8.90;;;;;;;5.68;73.06;94098.47;4995441;28;20391;-80
2022/01/09 08:38:27;;;;;;;21.30;10.23;;;;;;;5.72;73.35;94096.88;4977837;28;20053;-81
2022/01/09 08:40:53;;;;;;;26.13;12.45;;;;;;;5.37;73.50;94044.41;4978411;28;20127;-81
2022/01/09 08:43:18;;;;;;;20.98;10.88;;;;;;;5.77;72.71;94075.81;4995846;28;20113;-80
2022/01/09 08:45:43;;;;;;;21.08;11.20;;;;;;;5.65;73.33;94053.50;4995411;28;20504;-79
2022/01/09 08:48:09;;;;;;;20.13;10.43;;;;;;;5.90;74.17;94113.94;5010122;28;20520;-80
2022/01/09 08:50:35;;;;;;;19.00;9.52;;;;;;;5.39;73.94;94032.56;4994636;28;20030;-80
2022/01/09 08:53:01;;;;;;;18.30;9.82;;;;;;;6.01;74.40;94091.78;4978387;28;20026;-81
2022/01/09 08:55:27;;;;;;;23.33;11.90;;;;;;;5.64;73.37;94036.16;4996439;28;20038;-80
2022/01/09 08:58:02;;;;;;;24.50;10.97;;;;;;;6.23;73.78;94115.09;3829024;28;10020787;-81
2022/01/09 09:00:27;;;;;;;23.65;12.80;;;;;;;6.07;73.28;94084.66;1721465;28;10002006;-81
2022/01/09 09:02:53;;;;;;;24.45;12.60;;;;;;;6.17;72.61;94084.59;5027508;28;20049;-81
2022/01/09 09:05:20;;;;;;;26.95;13.93;;;;;;;6.27;71.90;94092.41;4995193;28;20133;-81
2022/01/09 09:07:46;;;;;;;23.23;12.18;;;;;;;6.24;72.92;94081.66;4995973;28;20116;-80
2022/01/09 09:10:13;;;;;;;20.77;10.82;;;;;;;5.93;71.82;94023.16;4995821;28;20413;-81
2022/01/09 09:12:39;;;;;;;20.23;10.48;;;;;;;6.07;72.14;94064.38;5028568;28;20038;-81
2022/01/09 09:15:06;;;;;;;22.67;11.15;;;;;;;6.49;71.35;94089.38;5027868;28;20462;-81
2022/01/09 09:17:33;;;;;;;22.05;11.18;;;;;;;6.40;70.32;94062.88;4996654;28;20038;-81
2022/01/09 09:19:58;;;;;;;22.98;11.10;;;;;;;6.46;70.89;94071.50;4997694;28;20030;-80
2022/01/09 09:22:24;;;;;;;24.08;13.02;;;;;;;6.65;70.66;94076.88;4996000;28;20546;-79
2022/01/09 09:24:50;;;;;;;25.52;12.52;;;;;;;6.64;70.46;94075.34;4997432;28;20031;-79
2022/01/09 09:27:15;;;;;;;33.95;13.38;;;;;;;6.07;70.61;93963.56;4996694;28;20054;-80
2022/01/09 09:29:42;;;;;;;24.92;13.23;;;;;;;6.63;69.58;94013.19;5027631;28;20512;-80
2022/01/09 09:32:07;;;;;;;23.83;11.50;;;;;;;6.43;69.80;93966.72;4996967;28;20117;-80
2022/01/09 09:34:34;;;;;;;13.73;8.65;;;;;;;7.13;68.25;94052.22;4996617;28;20154;-81
2022/01/09 09:37:00;;;;;;;12.93;7.40;;;;;;;6.92;68.11;93993.66;4996935;28;20065;-80
2022/01/09 09:39:25;;;;;;;13.23;7.20;;;;;;;7.13;68.30;94027.72;4996690;28;20053;-80
2022/01/09 09:41:51;;;;;;;17.23;7.30;;;;;;;7.03;68.01;94025.16;5027866;28;20038;-80
2022/01/09 09:44:16;;;;;;;13.48;6.28;;;;;;;6.37;68.40;93949.38;5009666;28;20085;-81
2022/01/09 09:46:49;;;;;;;12.13;6.78;;;;;;;7.06;67.50;94022.00;5015727;28;20052;-80
2022/01/09 09:49:15;;;;;;;20.58;7.80;;;;;;;6.78;67.20;93968.25;5018445;28;20058;-80
2022/01/09 09:51:41;;;;;;;13.63;7.13;;;;;;;7.07;66.96;94005.91;5019612;28;20038;-80
2022/01/09 09:54:07;;;;;;;11.30;7.32;;;;;;;6.92;67.59;93995.50;5001187;28;20154;-80
2022/01/09 09:56:32;;;;;;;16.67;7.28;;;;;;;6.92;68.48;93998.16;5018936;28;20474;-80
2022/01/09 09:58:59;;;;;;;13.65;7.15;;;;;;;7.13;68.01;94020.59;5001597;28;20046;-80
2022/01/09 10:01:33;;;;;;;16.05;8.13;;;;;;;6.92;68.65;93975.22;5017611;28;20492;-80
2022/01/09 10:04:00;;;;;;;13.18;7.43;;;;;;;7.47;66.78;94009.16;5019926;28;20358;-80
2022/01/09 10:06:41;;;;;;;9.60;5.50;;;;;;;7.43;66.47;94008.94;5019051;28;20045;-81
2022/01/09 10:09:10;;;;;;;12.77;7.20;;;;;;;6.88;66.43;93916.19;5001964;28;20141;-81
2022/01/09 10:11:56;;;;;;;14.70;7.38;;;;;;;7.60;66.89;94008.47;5019916;28;20073;-80
2022/01/09 10:14:27;;;;;;;13.25;7.72;;;;;;;7.52;67.52;93995.91;5000317;28;20061;-79
2022/01/09 10:17:16;;;;;;;18.88;9.80;;;;;;;7.74;67.69;94002.22;5018367;28;20092;-79
2022/01/09 10:19:56;;;;;;;19.48;9.60;;;;;;;7.54;68.20;93970.03;5018091;28;20034;-79
2022/01/09 10:22:46;;;;;;;17.77;9.23;;;;;;;7.45;67.23;93967.22;5018094;28;20116;-79
2022/01/09 10:25:32;;;;;;;23.65;9.25;;;;;;;7.54;67.14;93967.38;5018522;28;20105;-79
2022/01/09 10:28:04;;;;;;;17.48;8.65;;;;;;;7.24;66.21;93910.53;5018650;28;20034;-79
2022/01/09 10:30:51;;;;;;;15.05;8.27;;;;;;;7.64;67.51;93994.41;5005390;28;20033;-79
2022/01/09 10:33:26;;;;;;;16.60;9.50;;;;;;;7.68;66.93;93960.34;5004215;28;20042;-79
2022/01/09 10:35:52;;;;;;;17.48;9.32;;;;;;;8.24;65.87;93991.25;5017780;28;20038;-79
2022/01/09 10:38:27;;;;;;;17.13;9.52;;;;;;;8.41;65.72;93981.72;5017972;28;20121;-79
2022/01/09 10:40:57;;;;;;;15.57;9.07;;;;;;;7.83;64.93;93896.00;5032315;28;20516;-79
2022/01/09 10:43:26;;;;;;;20.33;9.13;;;;;;;8.27;64.82;93946.53;5016826;28;20045;-79
2022/01/09 10:46:00;;;;;;;17.92;8.52;;;;;;;8.12;64.38;93930.94;5032061;28;20033;-79
2022/01/09 10:48:32;;;;;;;14.90;8.10;;;;;;;8.29;64.50;93965.53;4999571;28;20095;-79
2022/01/09 10:50:58;;;;;;;17.50;8.52;;;;;;;8.07;64.03;93928.38;5031570;28;20073;-79
2022/01/09 10:53:26;;;;;;;16.83;8.50;;;;;;;8.02;65.67;93960.91;4999512;28;20065;-79
2022/01/09 10:56:12;;;;;;;18.70;8.40;;;;;;;7.98;65.92;93967.06;4933001;28;20076;-79
2022/01/09 10:58:44;;;;;;;19.20;8.55;;;;;;;8.08;65.79;93959.00;342433;28;10023006;-79
2022/01/09 11:01:14;;;;;;;16.90;8.32;;;;;;;8.13;65.76;93953.63;5010786;28;20034;-79
2022/01/09 11:03:46;;;;;;;20.65;9.93;;;;;;;7.89;65.01;93897.50;5012563;28;20031;-79
2022/01/09 11:06:12;;;;;;;17.55;9.32;;;;;;;8.02;65.26;93931.06;4979085;28;20026;-79
2022/01/09 11:08:39;;;;;;;16.50;9.80;;;;;;;7.74;65.04;93899.28;4998029;28;20037;-79
2022/01/09 11:11:09;;;;;;;19.08;9.68;;;;;;;7.89;65.60;93952.91;4998158;28;20547;-79
2022/01/09 11:13:38;;;;;;;24.23;10.85;;;;;;;7.73;65.46;93929.38;4997565;28;20054;-79
2022/01/09 11:18:49;;;;;;;26.30;10.52;;;;;;;7.95;64.98;93899.75;4997977;28;20094;-79
2022/01/09 11:21:15;;;;;;;22.05;10.07;;;;;;;8.09;64.64;93928.84;4996208;28;20029;-79
2022/01/09 11:23:59;;;;;;;21.85;10.90;;;;;;;8.00;65.68;93920.03;4996134;28;20116;-79
2022/01/09 11:26:36;;;;;;;14.90;8.50;;;;;;;8.09;65.15;93929.63;4997692;28;20033;-79
2022/01/09 11:29:06;;;;;;;17.42;9.73;;;;;;;7.59;64.14;93833.53;4980079;28;20041;-79